Time;durP1;ratioP1;P1;durP2;ratioP2;P2;SDS_P1;SDS_P2;PMS_P1;PMS_P2;Temp;Humidity;BMP_temperature;BMP_pressure;BME280_temperature;BME280_humidity;BME280_pressure;Samples;Min_cycle;Max_cycle;Signal;HPM_P1;HPM_P2
2022/07/02 00:03:33;;;;;;;;;;;;;;;22.62;50.75;96372.59;10509435;28;1906;-55
2022/07/02 00:08:33;;;;;;;;;;;;;;;22.64;51.78;96374.94;10512052;28;1822;-59
2022/07/02 00:13:34;;;;;;;;;;;;;;;22.65;52.02;96377.31;10509865;28;2102;-58
2022/07/02 00:18:34;;;;;;;;;;;;;;;22.65;52.13;96377.31;10511690;28;1897;-57
2022/07/02 00:23:35;;;;;;;;;;;;;;;22.64;51.95;96370.47;10508720;28;1823;-57
2022/07/02 00:28:37;;;;;;;;;;;;;;;22.65;52.18;96377.31;10512180;28;1820;-54
2022/07/02 00:33:38;;;;;;;;;;;;;;;22.64;52.21;96378.38;10504075;28;1985;-54
2022/07/02 00:38:38;;;;;;;;;;;;;;;22.64;51.96;96378.38;10509013;28;1843;-59
2022/07/02 00:43:38;;;;;;;;;;;;;;;22.64;52.03;96381.03;10493838;28;2349;-56
2022/07/02 00:48:39;;;;;;;;;;;;;;;22.64;52.25;96385.50;10503820;28;1931;-56
2022/07/02 00:53:40;;;;;;;;;;;;;;;22.63;52.08;96382.06;10504038;28;1902;-56
2022/07/02 00:58:41;;;;;;;;;;;;;;;22.62;51.98;96377.88;10508661;28;2232;-59
2022/07/02 01:03:42;;;;;;;;;;;;;;;22.62;52.19;96377.88;10506811;28;1926;-58
2022/07/02 01:14:04;;;;;;;;;;;;;;;22.62;52.11;96369.94;10502529;28;1914;-59
2022/07/02 01:19:11;;;;;;;;;;;;;;;22.61;52.23;96360.41;10509317;28;1895;-59
2022/07/02 01:24:24;;;;;;;;;;;;;;;22.62;52.03;96361.22;10491678;28;1868;-60
2022/07/02 01:29:28;;;;;;;;;;;;;;;22.63;52.03;96354.84;10502376;28;2008;-58
2022/07/02 01:34:46;;;;;;;;;;;;;;;22.63;52.17;96350.38;10499553;28;1969;-58
2022/07/02 01:39:54;;;;;;;;;;;;;;;22.64;52.18;96348.53;10502486;28;1976;-59
2022/07/02 01:44:54;;;;;;;;;;;;;;;22.64;51.93;96348.53;10502798;28;1918;-57
2022/07/02 01:49:55;;;;;;;;;;;;;;;22.64;52.09;96349.31;10500356;28;1983;-56
2022/07/02 01:54:56;;;;;;;;;;;;;;;22.62;52.17;96338.22;10503448;28;1965;-57
2022/07/02 01:59:57;;;;;;;;;;;;;;;22.62;52.23;96332.94;10506474;28;1947;-59
2022/07/02 02:04:57;;;;;;;;;;;;;;;22.63;52.25;96339.78;10497731;28;2019;-56
2022/07/02 02:09:58;;;;;;;;;;;;;;;22.63;52.20;96344.28;10505603;28;1969;-53
2022/07/02 02:14:59;;;;;;;;;;;;;;;22.62;52.20;96354.09;10504563;28;1956;-57
2022/07/02 02:19:59;;;;;;;;;;;;;;;22.60;52.17;96348.28;10514857;28;1998;-57
2022/07/02 02:25:00;;;;;;;;;;;;;;;22.61;52.23;96349.84;10510586;28;1945;-57
2022/07/02 02:30:01;;;;;;;;;;;;;;;22.60;52.05;96358.84;10514231;28;1925;-59
2022/07/02 02:35:01;;;;;;;;;;;;;;;22.59;51.69;96356.47;10510207;28;1977;-57
2022/07/02 02:40:01;;;;;;;;;;;;;;;22.59;51.70;96356.47;10506370;28;1897;-57
2022/07/02 02:45:02;;;;;;;;;;;;;;;22.59;52.04;96362.53;10502264;28;1905;-59
2022/07/02 02:50:03;;;;;;;;;;;;;;;22.57;51.84;96369.91;10510531;28;1946;-55
2022/07/02 02:55:03;;;;;;;;;;;;;;;22.59;52.07;96367.03;10504684;28;2104;-56
2022/07/02 03:00:04;;;;;;;;;;;;;;;22.59;51.82;96367.81;10513607;28;1937;-59
2022/07/02 03:05:04;;;;;;;;;;;;;;;22.59;51.63;96367.81;10509540;28;1960;-58
2022/07/02 03:10:05;;;;;;;;;;;;;;;22.59;52.07;96367.81;10510510;28;1929;-57
2022/07/02 03:15:06;;;;;;;;;;;;;;;22.58;51.88;96376.81;10510138;28;1983;-59
2022/07/02 03:20:06;;;;;;;;;;;;;;;22.58;51.99;96376.81;10511963;28;1981;-58
2022/07/02 03:25:07;;;;;;;;;;;;;;;22.58;51.88;96383.97;10513828;28;1937;-55
2022/07/02 03:30:08;;;;;;;;;;;;;;;22.57;51.55;96388.41;10509180;28;1944;-60
2022/07/02 03:35:08;;;;;;;;;;;;;;;22.56;51.74;96384.19;10508899;28;1940;-55
2022/07/02 03:40:09;;;;;;;;;;;;;;;22.55;51.60;96384.44;10509272;28;1896;-57
2022/07/02 03:45:09;;;;;;;;;;;;;;;22.54;51.48;96391.59;10500833;28;2022;-55
2022/07/02 03:50:09;;;;;;;;;;;;;;;22.51;51.27;96392.13;10506777;28;1980;-58
2022/07/02 03:55:10;;;;;;;;;;;;;;;22.51;51.30;96392.13;10503736;28;1912;-56
2022/07/02 04:00:10;;;;;;;;;;;;;;;22.51;51.00;96399.25;10509053;28;1895;-60
2022/07/02 04:05:11;;;;;;;;;;;;;;;22.50;51.06;96401.09;10504763;28;1669;-59
2022/07/02 04:10:11;;;;;;;;;;;;;;;22.50;51.18;96403.75;10501799;28;1909;-59
2022/07/02 04:15:12;;;;;;;;;;;;;;;22.51;51.02;96396.63;10498122;28;1982;-59
2022/07/02 04:20:12;;;;;;;;;;;;;;;22.52;50.97;96393.69;10510541;28;1933;-60
2022/07/02 04:25:13;;;;;;;;;;;;;;;22.57;51.09;96398.97;10505360;28;1842;-58
2022/07/02 04:30:13;;;;;;;;;;;;;;;22.56;51.21;96399.25;10492326;28;1877;-56
2022/07/02 04:35:14;;;;;;;;;;;;;;;22.56;51.20;96394.78;10497840;28;2004;-53
2022/07/02 04:40:15;;;;;;;;;;;;;;;22.55;51.20;96393.19;10502262;28;2103;-53
2022/07/02 04:45:15;;;;;;;;;;;;;;;22.56;51.09;96392.13;10497989;28;1932;-56
2022/07/02 04:50:15;;;;;;;;;;;;;;;22.57;51.26;96396.34;10497459;28;1965;-58
2022/07/02 04:55:16;;;;;;;;;;;;;;;22.58;51.23;96392.69;10504261;28;1914;-58
2022/07/02 05:00:16;;;;;;;;;;;;;;;22.58;51.15;96397.97;10498718;28;2349;-59
2022/07/02 05:05:17;;;;;;;;;;;;;;;22.58;51.19;96397.97;10501666;28;1916;-56
2022/07/02 05:10:18;;;;;;;;;;;;;;;22.57;50.95;96401.63;10500904;28;1917;-57
2022/07/02 05:15:19;;;;;;;;;;;;;;;22.57;51.05;96404.25;10504222;28;1981;-58
2022/07/02 05:20:19;;;;;;;;;;;;;;;22.57;51.05;96406.91;10501323;28;2185;-57
2022/07/02 05:25:19;;;;;;;;;;;;;;;22.57;50.87;96404.25;10508358;28;2015;-57
2022/07/02 05:30:21;;;;;;;;;;;;;;;22.57;51.21;96404.25;10505981;28;1961;-61
2022/07/02 05:35:21;;;;;;;;;;;;;;;22.58;51.18;96405.91;10506613;28;1944;-57
2022/07/02 05:40:22;;;;;;;;;;;;;;;22.58;50.80;96405.91;10500727;28;1995;-56
2022/07/02 05:45:22;;;;;;;;;;;;;;;22.59;50.90;96406.66;10505513;28;2020;-56
2022/07/02 05:50:23;;;;;;;;;;;;;;;22.58;51.04;96403.25;10506449;28;1918;-54
2022/07/02 05:55:23;;;;;;;;;;;;;;;22.60;50.77;96409.06;10496206;28;2021;-56
2022/07/02 06:00:25;;;;;;;;;;;;;;;22.57;50.48;96412.19;10502148;28;1959;-57
2022/07/02 06:10:45;;;;;;;;;;;;;;;22.60;50.88;96418.81;10488630;28;2043;-55
2022/07/02 06:15:45;;;;;;;;;;;;;;;22.59;50.49;96419.88;10484346;28;2063;-54
2022/07/02 06:20:46;;;;;;;;;;;;;;;22.52;50.17;96414.84;10492588;28;1948;-54
2022/07/02 06:25:46;;;;;;;;;;;;;;;22.51;50.46;96421.19;10493585;28;1910;-56
2022/07/02 06:30:47;;;;;;;;;;;;;;;22.49;50.26;96420.69;10488615;28;1950;-60
2022/07/02 06:35:47;;;;;;;;;;;;;;;22.48;50.01;96423.59;10497685;28;2016;-59
2022/07/02 06:40:47;;;;;;;;;;;;;;;22.51;50.59;96407.19;10498207;28;2071;-58
2022/07/02 06:45:47;;;;;;;;;;;;;;;22.52;50.44;96414.84;10500722;28;1964;-57
2022/07/02 06:50:48;;;;;;;;;;;;;;;22.55;51.07;96410.88;10498641;28;1893;-57
2022/07/02 06:55:48;;;;;;;;;;;;;;;22.53;50.46;96421.72;10504338;28;2192;-60
2022/07/02 07:00:48;;;;;;;;;;;;;;;22.49;50.43;96414.59;10500533;28;1945;-58
2022/07/02 07:05:49;;;;;;;;;;;;;;;22.49;50.13;96402.19;10508894;28;1914;-60
2022/07/02 07:10:49;;;;;;;;;;;;;;;22.44;50.38;96415.41;10504499;28;1945;-60
2022/07/02 07:15:49;;;;;;;;;;;;;;;22.47;50.20;96412.22;10505419;28;1917;-62
2022/07/02 07:20:52;;;;;;;;;;;;;;;22.48;50.58;96421.72;10505032;28;1957;-60
2022/07/02 07:25:52;;;;;;;;;;;;;;;22.24;48.93;96412.81;10502002;28;1956;-58
2022/07/02 07:30:53;;;;;;;;;;;;;;;21.88;48.39;96400.75;10505714;28;1933;-54
2022/07/02 07:35:54;;;;;;;;;;;;;;;21.67;48.03;96413.13;10503356;28;2105;-53
2022/07/02 07:40:55;;;;;;;;;;;;;;;21.43;48.56;96406.78;10509315;28;1913;-57
2022/07/02 07:45:56;;;;;;;;;;;;;;;21.42;48.97;96410.50;10504254;28;1830;-55
2022/07/02 07:50:56;;;;;;;;;;;;;;;21.41;49.15;96413.41;10512960;28;1957;-56
2022/07/02 07:55:56;;;;;;;;;;;;;;;21.39;48.67;96410.22;10494283;28;1914;-58
2022/07/02 08:00:58;;;;;;;;;;;;;;;21.27;48.89;96407.06;10499846;28;1961;-53
2022/07/02 08:05:58;;;;;;;;;;;;;;;21.33;48.70;96406.78;10492302;28;1909;-58
2022/07/02 08:10:58;;;;;;;;;;;;;;;21.11;48.10;96414.13;10493784;28;1846;-57
2022/07/02 08:15:59;;;;;;;;;;;;;;;20.99;47.82;96411.72;10489745;28;2046;-56
2022/07/02 08:21:00;;;;;;;;;;;;;;;20.89;47.85;96410.88;10494339;28;1981;-55
2022/07/02 08:26:00;;;;;;;;;;;;;;;20.83;48.17;96406.66;10497148;28;1869;-58
2022/07/02 08:31:01;;;;;;;;;;;;;;;20.88;48.40;96398.75;10501116;28;1938;-57
2022/07/02 08:36:01;;;;;;;;;;;;;;;20.85;48.89;96405.34;10491212;28;1925;-57
2022/07/02 08:41:02;;;;;;;;;;;;;;;20.86;49.31;96408.75;10494695;28;1917;-61
2022/07/02 08:46:04;;;;;;;;;;;;;;;20.92;48.65;96405.09;10496343;28;1912;-58
2022/07/02 08:51:04;;;;;;;;;;;;;;;20.90;47.95;96397.44;10488471;28;1898;-57
2022/07/02 08:56:04;;;;;;;;;;;;;;;20.86;47.43;96396.38;10494578;28;1997;-57
2022/07/02 09:01:06;;;;;;;;;;;;;;;20.91;47.39;96388.50;10497356;28;1885;-61
2022/07/02 09:06:06;;;;;;;;;;;;;;;20.93;47.72;96370.59;10493606;28;1890;-53
2022/07/02 09:11:07;;;;;;;;;;;;;;;20.90;47.90;96376.38;10492740;28;1874;-57
2022/07/02 09:16:07;;;;;;;;;;;;;;;20.89;48.26;96368.72;10498711;28;1973;-61
2022/07/02 09:21:08;;;;;;;;;;;;;;;20.98;48.87;96372.41;10496332;28;1992;-60
2022/07/02 09:26:15;;;;;;;;;;;;;;;20.98;47.58;96373.22;10505052;28;1854;-54
2022/07/02 09:31:16;;;;;;;;;;;;;;;20.91;47.07;96366.63;10501891;28;1912;-59
2022/07/02 09:36:16;;;;;;;;;;;;;;;20.98;47.23;96364.50;10508956;28;1932;-61
2022/07/02 09:41:21;;;;;;;;;;;;;;;21.10;46.95;96361.69;10492680;28;2044;-61
2022/07/02 09:46:22;;;;;;;;;;;;;;;21.12;46.78;96355.09;10498312;28;1882;-59
2022/07/02 09:51:22;;;;;;;;;;;;;;;21.15;46.10;96348.47;10495671;28;1831;-58
2022/07/02 09:56:23;;;;;;;;;;;;;;;21.22;46.23;96341.13;10496629;28;1988;-58
2022/07/02 10:01:23;;;;;;;;;;;;;;;21.26;45.80;96336.91;10502103;28;1969;-56
2022/07/02 10:06:24;;;;;;;;;;;;;;;21.19;44.72;96325.81;10502397;28;1889;-58
2022/07/02 10:11:24;;;;;;;;;;;;;;;21.19;44.85;96320.53;10495752;28;2023;-59
2022/07/02 10:16:25;;;;;;;;;;;;;;;21.16;44.26;96323.72;10499917;28;1939;-61
2022/07/02 10:21:26;;;;;;;;;;;;;;;21.23;44.10;96317.13;10499030;28;1949;-59
2022/07/02 10:26:27;;;;;;;;;;;;;;;21.36;44.46;96321.88;10494882;28;1905;-58
2022/07/02 10:31:27;;;;;;;;;;;;;;;21.49;44.92;96315.28;10509380;28;1952;-58
2022/07/02 10:36:28;;;;;;;;;;;;;;;21.57;45.27;96310.25;10475522;28;1960;-54
2022/07/02 10:41:29;;;;;;;;;;;;;;;21.64;44.81;96307.31;10504335;28;1916;-59
2022/07/02 10:46:33;;;;;;;;;;;;;;;21.68;44.68;96309.16;10504071;28;2032;-57
2022/07/02 10:51:35;;;;;;;;;;;;;;;21.74;44.34;96308.09;10508601;28;1999;-60
2022/07/02 10:56:44;;;;;;;;;;;;;;;21.78;44.73;96308.38;10504721;28;1921;-57
2022/07/02 11:01:45;;;;;;;;;;;;;;;21.83;44.60;96300.47;10499587;28;1909;-58
2022/07/02 11:06:45;;;;;;;;;;;;;;;21.86;44.38;96292.03;10505115;28;1937;-62
2022/07/02 11:11:48;;;;;;;;;;;;;;;21.89;44.32;96278.28;10505508;28;1889;-62
2022/07/02 11:16:49;;;;;;;;;;;;;;;21.86;42.98;96273.53;10501683;28;1972;-57
2022/07/02 11:21:49;;;;;;;;;;;;;;;21.82;43.13;96265.34;10502717;28;1757;-61
2022/07/02 11:26:50;;;;;;;;;;;;;;;21.81;43.04;96250.59;10503833;28;1817;-55
2022/07/02 11:31:52;;;;;;;;;;;;;;;21.80;42.78;96237.66;10501168;28;1943;-61
2022/07/02 11:36:52;;;;;;;;;;;;;;;21.80;42.17;96227.09;10503361;28;1905;-59
2022/07/02 11:41:52;;;;;;;;;;;;;;;21.74;41.31;96222.88;10497545;28;1878;-60
2022/07/02 11:46:53;;;;;;;;;;;;;;;21.74;41.04;96222.88;10501491;28;1894;-57
2022/07/02 11:51:54;;;;;;;;;;;;;;;21.74;40.70;96233.44;10497435;28;1797;-61
2022/07/02 11:56:55;;;;;;;;;;;;;;;21.81;41.20;96218.09;10492318;28;1965;-58
2022/07/02 12:01:56;;;;;;;;;;;;;;;21.93;41.29;96207.28;10496462;28;1873;-58
2022/07/02 12:06:57;;;;;;;;;;;;;;;21.92;40.95;96214.41;10498454;28;1876;-65
2022/07/02 12:11:58;;;;;;;;;;;;;;;21.90;40.59;96218.38;10505015;28;1830;-60
2022/07/02 12:16:58;;;;;;;;;;;;;;;21.88;40.94;96207.28;10497046;28;2014;-58
2022/07/02 12:21:59;;;;;;;;;;;;;;;21.88;41.32;96202.81;10507820;28;1898;-62
2022/07/02 12:27:03;;;;;;;;;;;;;;;21.90;41.47;96205.97;10506960;28;1736;-62
2022/07/02 12:32:07;;;;;;;;;;;;;;;21.90;41.24;96207.81;10487880;28;1777;-60
2022/07/02 12:37:10;;;;;;;;;;;;;;;21.90;41.04;96195.41;10502505;28;1951;-65
2022/07/02 12:42:14;;;;;;;;;;;;;;;21.90;41.04;96198.03;10503680;28;1858;-60
2022/07/02 12:47:21;;;;;;;;;;;;;;;21.90;40.80;96189.34;10504557;28;1835;-62
2022/07/02 12:52:21;;;;;;;;;;;;;;;21.90;40.66;96171.66;10504108;28;1815;-62
2022/07/02 12:57:22;;;;;;;;;;;;;;;21.91;40.80;96167.94;10506471;28;1906;-62
2022/07/02 13:02:23;;;;;;;;;;;;;;;21.93;40.98;96157.13;10503114;28;1970;-63
2022/07/02 13:07:24;;;;;;;;;;;;;;;21.95;41.16;96158.41;10490483;28;1828;-61
2022/07/02 13:12:24;;;;;;;;;;;;;;;21.96;41.14;96144.16;10500888;28;2202;-60
2022/07/02 13:17:24;;;;;;;;;;;;;;;21.97;41.19;96145.72;10499422;28;1973;-65
2022/07/02 13:22:26;;;;;;;;;;;;;;;22.00;41.71;96142.56;10504646;28;1856;-61
2022/07/02 13:27:27;;;;;;;;;;;;;;;22.02;41.80;96137.00;10501541;28;1843;-64
2022/07/02 13:32:27;;;;;;;;;;;;;;;22.04;41.91;96138.31;10502809;28;1823;-62
2022/07/02 13:37:28;;;;;;;;;;;;;;;22.06;42.14;96128.25;10501076;28;1905;-62
2022/07/02 13:42:28;;;;;;;;;;;;;;;22.09;42.32;96135.63;10501054;28;1878;-65
2022/07/02 13:47:28;;;;;;;;;;;;;;;22.09;42.25;96130.34;10500265;28;1827;-60
2022/07/02 13:52:28;;;;;;;;;;;;;;;22.11;42.19;96122.16;10502744;28;1870;-62
2022/07/02 13:57:29;;;;;;;;;;;;;;;22.12;42.25;96115.81;10505832;28;1905;-58
2022/07/02 14:02:29;;;;;;;;;;;;;;;22.12;42.42;96111.31;10508393;28;1831;-63
2022/07/02 14:07:29;;;;;;;;;;;;;;;22.16;42.48;96119.47;10519965;28;1999;-61
2022/07/02 14:12:29;;;;;;;;;;;;;;;22.17;42.45;96110.50;10511489;28;1820;-66
2022/07/02 14:17:30;;;;;;;;;;;;;;;22.18;43.08;96107.59;10510515;28;1906;-65
2022/07/02 14:22:31;;;;;;;;;;;;;;;22.20;42.97;96110.75;10511756;28;1824;-64
2022/07/02 14:27:31;;;;;;;;;;;;;;;22.24;43.60;96116.25;10511344;28;2211;-63
2022/07/02 14:32:32;;;;;;;;;;;;;;;22.24;43.32;96108.34;10507758;28;1966;-61
2022/07/02 14:37:35;;;;;;;;;;;;;;;22.24;43.32;96090.66;10507226;28;1969;-63
2022/07/02 14:42:36;;;;;;;;;;;;;;;22.24;43.28;96088.00;10506220;28;1819;-62
2022/07/02 14:47:37;;;;;;;;;;;;;;;22.25;43.42;96075.59;10508418;28;1944;-65
2022/07/02 14:52:37;;;;;;;;;;;;;;;22.26;43.28;96066.59;10507125;28;1824;-65
2022/07/02 14:57:37;;;;;;;;;;;;;;;22.26;43.15;96063.94;10510846;28;1913;-64
2022/07/02 15:02:38;;;;;;;;;;;;;;;22.26;43.14;96067.38;10513270;28;1868;-63
2022/07/02 15:07:38;;;;;;;;;;;;;;;22.27;43.10;96068.19;10516271;28;1933;-63
2022/07/02 15:12:38;;;;;;;;;;;;;;;22.27;43.23;96068.97;10488074;28;1871;-62
2022/07/02 15:17:39;;;;;;;;;;;;;;;22.29;43.20;96074.78;10507779;28;1967;-58
2022/07/02 15:22:45;;;;;;;;;;;;;;;22.29;43.19;96074.78;10505505;28;1879;-59
2022/07/02 15:27:50;;;;;;;;;;;;;;;22.30;43.22;96076.34;10503252;28;1796;-63
2022/07/02 15:32:50;;;;;;;;;;;;;;;22.30;43.47;96057.84;10502478;28;1910;-66
2022/07/02 15:37:51;;;;;;;;;;;;;;;22.30;43.28;96052.56;10504577;28;2019;-63
2022/07/02 15:42:52;;;;;;;;;;;;;;;22.31;43.27;96048.88;10505709;28;1792;-59
2022/07/02 15:47:52;;;;;;;;;;;;;;;22.32;43.38;96039.88;10504021;28;1962;-57
2022/07/02 15:53:06;;;;;;;;;;;;;;;22.33;43.42;96041.47;10506335;28;1983;-61
2022/07/02 15:58:08;;;;;;;;;;;;;;;22.34;43.71;96029.81;10488615;28;1864;-64
2022/07/02 16:03:08;;;;;;;;;;;;;;;22.36;43.68;96032.19;10488076;28;1899;-58
2022/07/02 16:08:10;;;;;;;;;;;;;;;22.36;43.72;96019.00;10504303;28;1705;-63
2022/07/02 16:13:10;;;;;;;;;;;;;;;22.36;43.76;96019.75;10499324;28;1983;-62
2022/07/02 16:18:10;;;;;;;;;;;;;;;22.36;43.58;96019.75;10502006;28;1843;-63
2022/07/02 16:23:11;;;;;;;;;;;;;;;22.38;43.72;96006.31;10505699;28;1878;-59
2022/07/02 16:28:15;;;;;;;;;;;;;;;22.38;43.94;96001.00;10504172;28;1879;-62
2022/07/02 16:33:26;;;;;;;;;;;;;;;22.39;43.69;95999.94;10503266;28;1979;-59
2022/07/02 16:38:27;;;;;;;;;;;;;;;22.39;43.78;95989.38;10501653;28;1836;-65
2022/07/02 16:43:30;;;;;;;;;;;;;;;22.38;43.72;95985.94;10497252;28;2078;-65
2022/07/02 16:48:32;;;;;;;;;;;;;;;22.40;43.93;95986.44;10498062;28;1765;-64
2022/07/02 16:53:33;;;;;;;;;;;;;;;22.44;44.15;95986.69;10502952;28;1954;-60
2022/07/02 16:58:33;;;;;;;;;;;;;;;22.49;43.74;95982.13;10498693;28;1920;-62
2022/07/02 17:03:33;;;;;;;;;;;;;;;22.48;44.03;95980.53;10497671;28;1855;-57
2022/07/02 17:08:34;;;;;;;;;;;;;;;22.53;43.75;95983.16;10501862;28;1802;-61
2022/07/02 17:13:35;;;;;;;;;;;;;;;22.51;43.79;95982.63;10492117;28;1914;-61
2022/07/02 17:18:36;;;;;;;;;;;;;;;22.50;43.44;95975.00;10495303;28;1803;-60
2022/07/02 17:23:37;;;;;;;;;;;;;;;22.49;43.58;95976.84;10495038;28;1792;-60
2022/07/02 17:28:37;;;;;;;;;;;;;;;22.48;43.71;95969.97;10503169;28;1788;-61
2022/07/02 17:33:38;;;;;;;;;;;;;;;22.51;43.47;95964.16;10502100;28;1978;-61
2022/07/02 17:38:39;;;;;;;;;;;;;;;22.50;43.36;95973.13;10496286;28;1993;-62
2022/07/02 17:43:39;;;;;;;;;;;;;;;22.50;43.57;95967.84;10494132;28;1843;-61
2022/07/02 17:48:39;;;;;;;;;;;;;;;22.51;43.49;95963.34;10495647;28;1847;-62
2022/07/02 17:53:40;;;;;;;;;;;;;;;22.49;43.60;95963.66;10496496;28;1993;-60
2022/07/02 17:58:41;;;;;;;;;;;;;;;22.50;43.39;95957.28;10500959;28;1760;-61
2022/07/02 18:03:41;;;;;;;;;;;;;;;22.48;43.52;95963.94;10495380;28;1780;-62
2022/07/02 18:08:42;;;;;;;;;;;;;;;22.50;43.35;95951.22;10499497;28;2161;-61
2022/07/02 18:13:42;;;;;;;;;;;;;;;22.48;42.62;95943.56;10493229;28;2184;-61
2022/07/02 18:18:43;;;;;;;;;;;;;;;22.48;43.30;95954.13;10497925;28;2168;-59
2022/07/02 18:23:43;;;;;;;;;;;;;;;22.45;43.26;95960.00;10492036;28;2139;-60
2022/07/02 18:28:43;;;;;;;;;;;;;;;22.44;42.95;95947.84;10496081;28;2136;-60
2022/07/02 18:33:45;;;;;;;;;;;;;;;22.43;42.69;95948.13;10495017;28;1917;-61
2022/07/02 18:38:45;;;;;;;;;;;;;;;22.41;43.27;95953.69;10498974;28;2039;-60
2022/07/02 18:43:47;;;;;;;;;;;;;;;22.40;42.90;95951.34;10493410;28;1848;-61
2022/07/02 18:48:48;;;;;;;;;;;;;;;22.37;42.48;95955.31;10500841;28;1922;-63
2022/07/02 18:53:48;;;;;;;;;;;;;;;22.35;42.70;95952.19;10500787;28;2093;-60
2022/07/02 18:58:49;;;;;;;;;;;;;;;22.33;42.42;95946.38;10499600;28;1949;-63
2022/07/02 19:03:49;;;;;;;;;;;;;;;22.33;42.55;95956.16;10500654;28;2175;-61
2022/07/02 19:08:49;;;;;;;;;;;;;;;22.32;42.79;95947.44;10500536;28;1884;-61
2022/07/02 19:13:50;;;;;;;;;;;;;;;22.32;42.66;95955.34;10501777;28;2113;-61
2022/07/02 19:18:50;;;;;;;;;;;;;;;22.33;42.96;95946.38;10507480;28;1796;-62
2022/07/02 19:23:51;;;;;;;;;;;;;;;22.31;42.61;95953.81;10502865;28;1877;-62
2022/07/02 19:34:12;;;;;;;;;;;;;;;22.30;43.07;95961.97;10502198;28;1891;-62
2022/07/02 19:39:12;;;;;;;;;;;;;;;22.31;43.04;95956.44;10500713;28;1943;-63
2022/07/02 19:44:13;;;;;;;;;;;;;;;22.30;42.94;95957.50;10501740;28;1772;-62
2022/07/02 19:49:13;;;;;;;;;;;;;;;22.28;43.21;95954.34;10501385;28;2188;-62
2022/07/02 19:54:14;;;;;;;;;;;;;;;22.28;43.07;95956.97;10492232;28;2213;-58
2022/07/02 19:59:15;;;;;;;;;;;;;;;22.26;43.34;95948.56;10485476;28;1784;-62
2022/07/02 20:04:16;;;;;;;;;;;;;;;22.25;43.30;95952.28;10501815;28;1970;-62
2022/07/02 20:09:17;;;;;;;;;;;;;;;22.22;43.52;95939.63;10502030;28;1879;-62
2022/07/02 20:14:17;;;;;;;;;;;;;;;22.21;43.52;95945.97;10494641;28;1902;-61
2022/07/02 20:19:17;;;;;;;;;;;;;;;22.21;43.26;95948.63;10499256;28;1840;-59
2022/07/02 20:24:17;;;;;;;;;;;;;;;22.20;43.66;95939.09;10500681;28;1780;-62
2022/07/02 20:29:18;;;;;;;;;;;;;;;22.19;43.41;95940.19;10497849;28;1841;-62
2022/07/02 20:34:18;;;;;;;;;;;;;;;22.20;43.49;95941.75;10493717;28;2177;-61
2022/07/02 20:39:18;;;;;;;;;;;;;;;22.17;43.64;95952.09;10501296;28;1898;-63
2022/07/02 20:44:20;;;;;;;;;;;;;;;22.14;43.52;95948.16;10495078;28;1804;-63
2022/07/02 20:49:20;;;;;;;;;;;;;;;22.15;43.80;95951.59;10498596;28;1820;-63
2022/07/02 20:54:21;;;;;;;;;;;;;;;22.11;43.64;95948.72;10497372;28;1985;-61
2022/07/02 20:59:23;;;;;;;;;;;;;;;22.09;43.59;95958.75;10500408;28;1866;-64
2022/07/02 21:04:23;;;;;;;;;;;;;;;22.07;43.81;95958.22;10499880;28;1796;-62
2022/07/02 21:09:24;;;;;;;;;;;;;;;22.08;43.73;95959.03;10502181;28;1846;-61
2022/07/02 21:14:25;;;;;;;;;;;;;;;22.08;43.73;95965.09;10495747;28;2072;-62
2022/07/02 21:19:27;;;;;;;;;;;;;;;22.07;43.81;95966.16;10501942;28;1811;-62
2022/07/02 21:24:27;;;;;;;;;;;;;;;22.08;43.78;95972.22;10499798;28;1835;-63
2022/07/02 21:29:27;;;;;;;;;;;;;;;22.08;44.19;95973.03;10494435;28;1728;-63
2022/07/02 21:34:28;;;;;;;;;;;;;;;22.08;43.89;95969.59;10496234;28;1902;-61
2022/07/02 21:39:28;;;;;;;;;;;;;;;22.07;44.10;95973.31;10495349;28;1875;-62
2022/07/02 21:44:28;;;;;;;;;;;;;;;22.02;44.34;95975.97;10485261;28;1895;-61
2022/07/02 21:49:29;;;;;;;;;;;;;;;21.91;44.80;95980.53;10492293;28;1832;-60
2022/07/02 21:54:29;;;;;;;;;;;;;;;21.76;44.83;95983.28;10490259;28;1902;-61
2022/07/02 21:59:30;;;;;;;;;;;;;;;21.66;45.06;95980.69;10487067;28;1799;-60
2022/07/02 22:04:30;;;;;;;;;;;;;;;21.59;45.50;95980.22;10491927;28;1809;-60
2022/07/02 22:09:30;;;;;;;;;;;;;;;21.53;45.87;95970.78;10496137;28;1818;-60
2022/07/02 22:14:31;;;;;;;;;;;;;;;21.49;45.81;95978.47;10494746;28;1914;-61
2022/07/02 22:19:31;;;;;;;;;;;;;;;21.41;46.01;95967.69;10498950;28;2220;-59
2022/07/02 22:24:31;;;;;;;;;;;;;;;21.29;46.26;95967.25;10503427;28;1903;-60
2022/07/02 22:29:32;;;;;;;;;;;;;;;21.22;46.45;95972.03;10510433;28;1807;-60
2022/07/02 22:34:32;;;;;;;;;;;;;;;21.34;46.44;95967.19;10503620;28;1960;-60
2022/07/02 22:39:32;;;;;;;;;;;;;;;21.56;45.91;95954.38;10505437;28;2053;-60
2022/07/02 22:44:33;;;;;;;;;;;;;;;21.71;45.86;95959.56;10500700;28;1804;-59
2022/07/02 22:49:33;;;;;;;;;;;;;;;21.82;46.03;95961.88;10507727;28;3551;-61
2022/07/02 22:54:33;;;;;;;;;;;;;;;21.90;45.91;95960.50;10507400;28;1969;-62
2022/07/02 22:59:34;;;;;;;;;;;;;;;21.97;45.85;95954.91;10510390;28;2284;-62
2022/07/02 23:04:34;;;;;;;;;;;;;;;22.01;45.58;95959.34;10507941;28;1752;-61
2022/07/02 23:09:35;;;;;;;;;;;;;;;22.06;45.53;95967.22;10501151;28;1811;-60
2022/07/02 23:14:35;;;;;;;;;;;;;;;22.10;45.62;95960.34;10502331;28;1986;-59
2022/07/02 23:19:36;;;;;;;;;;;;;;;22.14;45.67;95969.28;10500027;28;1814;-59
2022/07/02 23:24:36;;;;;;;;;;;;;;;22.18;45.83;95954.44;10500917;28;1882;-58
2022/07/02 23:29:37;;;;;;;;;;;;;;;22.21;46.03;95966.31;10492743;28;1799;-61
2022/07/02 23:34:37;;;;;;;;;;;;;;;22.23;45.73;95962.34;10499705;28;1910;-59
2022/07/02 23:39:37;;;;;;;;;;;;;;;22.27;46.26;95967.84;10499813;28;1910;-59
2022/07/02 23:44:38;;;;;;;;;;;;;;;22.29;46.21;95960.41;10499593;28;1838;-58
2022/07/02 23:49:38;;;;;;;;;;;;;;;22.32;46.11;95960.63;10504040;28;1843;-61
2022/07/02 23:54:38;;;;;;;;;;;;;;;22.32;46.30;95955.34;10501791;28;1930;-60
2022/07/02 23:59:40;;;;;;;;;;;;;;;22.33;46.19;95967.50;10504097;28;1824;-59
